sensor_id;sensor_type;location;lat;lon;timestamp;temperature;humidity
68026;SHT31;54819;48.030;14.710;2022-12-07T00:01:37;4.95;82.43
68026;SHT31;54819;48.030;14.710;2022-12-07T00:04:07;4.96;82.34
68026;SHT31;54819;48.030;14.710;2022-12-07T00:06:38;4.98;82.40
68026;SHT31;54819;48.030;14.710;2022-12-07T00:09:12;4.99;82.30
68026;SHT31;54819;48.030;14.710;2022-12-07T00:11:42;4.98;82.20
68026;SHT31;54819;48.030;14.710;2022-12-07T00:14:11;4.98;82.17
68026;SHT31;54819;48.030;14.710;2022-12-07T00:16:41;4.98;82.09
68026;SHT31;54819;48.030;14.710;2022-12-07T00:19:10;4.97;82.12
68026;SHT31;54819;48.030;14.710;2022-12-07T00:21:39;4.95;82.10
68026;SHT31;54819;48.030;14.710;2022-12-07T00:24:06;4.93;82.15
68026;SHT31;54819;48.030;14.710;2022-12-07T00:26:34;4.92;82.07
68026;SHT31;54819;48.030;14.710;2022-12-07T00:29:05;4.90;82.12
68026;SHT31;54819;48.030;14.710;2022-12-07T00:31:39;4.93;82.26
68026;SHT31;54819;48.030;14.710;2022-12-07T00:34:06;4.94;82.40
68026;SHT31;54819;48.030;14.710;2022-12-07T00:36:39;4.97;82.44
68026;SHT31;54819;48.030;14.710;2022-12-07T00:39:06;4.98;82.50
68026;SHT31;54819;48.030;14.710;2022-12-07T00:41:33;4.99;82.28
68026;SHT31;54819;48.030;14.710;2022-12-07T00:44:00;4.98;82.24
68026;SHT31;54819;48.030;14.710;2022-12-07T00:46:27;4.99;82.30
68026;SHT31;54819;48.030;14.710;2022-12-07T00:48:54;5.00;82.21
68026;SHT31;54819;48.030;14.710;2022-12-07T00:51:23;4.98;82.15
68026;SHT31;54819;48.030;14.710;2022-12-07T00:53:51;4.97;82.12
68026;SHT31;54819;48.030;14.710;2022-12-07T00:56:23;4.94;82.17
68026;SHT31;54819;48.030;14.710;2022-12-07T00:58:54;4.94;82.33
68026;SHT31;54819;48.030;14.710;2022-12-07T01:01:29;4.95;82.45
68026;SHT31;54819;48.030;14.710;2022-12-07T01:04:02;4.93;82.44
68026;SHT31;54819;48.030;14.710;2022-12-07T01:06:30;4.93;82.43
68026;SHT31;54819;48.030;14.710;2022-12-07T01:08:58;4.94;82.47
68026;SHT31;54819;48.030;14.710;2022-12-07T01:11:27;4.94;82.47
68026;SHT31;54819;48.030;14.710;2022-12-07T01:13:57;4.93;82.30
68026;SHT31;54819;48.030;14.710;2022-12-07T01:16:26;4.89;82.36
68026;SHT31;54819;48.030;14.710;2022-12-07T01:18:57;4.87;82.36
68026;SHT31;54819;48.030;14.710;2022-12-07T01:21:30;4.86;82.41
68026;SHT31;54819;48.030;14.710;2022-12-07T01:24:05;4.87;82.58
68026;SHT31;54819;48.030;14.710;2022-12-07T01:26:33;4.83;82.63
68026;SHT31;54819;48.030;14.710;2022-12-07T01:29:00;4.82;82.67
68026;SHT31;54819;48.030;14.710;2022-12-07T01:31:27;4.84;82.84
68026;SHT31;54819;48.030;14.710;2022-12-07T01:33:55;4.87;82.92
68026;SHT31;54819;48.030;14.710;2022-12-07T01:38:59;4.85;82.85
68026;SHT31;54819;48.030;14.710;2022-12-07T01:41:30;4.85;82.83
68026;SHT31;54819;48.030;14.710;2022-12-07T01:49:42;4.80;83.00
68026;SHT31;54819;48.030;14.710;2022-12-07T01:52:28;4.79;83.10
68026;SHT31;54819;48.030;14.710;2022-12-07T01:55:09;4.79;83.13
68026;SHT31;54819;48.030;14.710;2022-12-07T01:57:41;4.84;83.28
68026;SHT31;54819;48.030;14.710;2022-12-07T02:00:15;4.85;83.23
68026;SHT31;54819;48.030;14.710;2022-12-07T02:05:23;4.87;83.30
68026;SHT31;54819;48.030;14.710;2022-12-07T02:07:53;4.88;83.11
68026;SHT31;54819;48.030;14.710;2022-12-07T02:10:24;4.86;83.05
68026;SHT31;54819;48.030;14.710;2022-12-07T02:12:59;4.85;82.94
68026;SHT31;54819;48.030;14.710;2022-12-07T02:27:56;4.72;83.69
68026;SHT31;54819;48.030;14.710;2022-12-07T02:30:35;4.75;83.80
68026;SHT31;54819;48.030;14.710;2022-12-07T02:33:16;4.79;83.73
68026;SHT31;54819;48.030;14.710;2022-12-07T02:35:57;4.82;83.67
68026;SHT31;54819;48.030;14.710;2022-12-07T02:41:29;4.81;83.53
68026;SHT31;54819;48.030;14.710;2022-12-07T02:44:06;4.80;83.45
68026;SHT31;54819;48.030;14.710;2022-12-07T02:46:42;4.78;83.54
68026;SHT31;54819;48.030;14.710;2022-12-07T02:49:17;4.77;83.49
68026;SHT31;54819;48.030;14.710;2022-12-07T02:51:46;4.76;83.50
68026;SHT31;54819;48.030;14.710;2022-12-07T02:54:13;4.78;83.69
68026;SHT31;54819;48.030;14.710;2022-12-07T03:08:46;4.86;83.70
68026;SHT31;54819;48.030;14.710;2022-12-07T03:11:08;4.86;83.69
68026;SHT31;54819;48.030;14.710;2022-12-07T03:13:51;4.84;83.63
68026;SHT31;54819;48.030;14.710;2022-12-07T03:17:22;4.84;83.63
68026;SHT31;54819;48.030;14.710;2022-12-07T03:19:34;4.81;83.68
68026;SHT31;54819;48.030;14.710;2022-12-07T03:22:04;4.79;83.60
68026;SHT31;54819;48.030;14.710;2022-12-07T03:28:14;4.76;83.79
68026;SHT31;54819;48.030;14.710;2022-12-07T03:33:41;4.76;84.03
68026;SHT31;54819;48.030;14.710;2022-12-07T03:36:50;4.79;84.10
68026;SHT31;54819;48.030;14.710;2022-12-07T03:39:26;4.84;84.13
68026;SHT31;54819;48.030;14.710;2022-12-07T03:42:33;4.84;83.85
68026;SHT31;54819;48.030;14.710;2022-12-07T03:45:01;4.86;83.88
68026;SHT31;54819;48.030;14.710;2022-12-07T03:47:34;4.89;83.80
68026;SHT31;54819;48.030;14.710;2022-12-07T03:53:33;4.85;83.42
68026;SHT31;54819;48.030;14.710;2022-12-07T03:56:01;4.84;83.46
68026;SHT31;54819;48.030;14.710;2022-12-07T03:58:29;4.82;83.48
68026;SHT31;54819;48.030;14.710;2022-12-07T04:00:58;4.80;83.53
68026;SHT31;54819;48.030;14.710;2022-12-07T04:03:24;4.80;83.68
68026;SHT31;54819;48.030;14.710;2022-12-07T04:05:51;4.82;83.74
68026;SHT31;54819;48.030;14.710;2022-12-07T04:08:19;4.81;83.72
68026;SHT31;54819;48.030;14.710;2022-12-07T04:10:46;4.82;83.74
68026;SHT31;54819;48.030;14.710;2022-12-07T04:13:13;4.76;84.11
68026;SHT31;54819;48.030;14.710;2022-12-07T04:15:40;4.60;85.20
68026;SHT31;54819;48.030;14.710;2022-12-07T04:18:07;4.47;85.71
68026;SHT31;54819;48.030;14.710;2022-12-07T04:20:34;4.44;85.39
68026;SHT31;54819;48.030;14.710;2022-12-07T04:23:01;4.42;85.44
68026;SHT31;54819;48.030;14.710;2022-12-07T04:25:28;4.37;85.93
68026;SHT31;54819;48.030;14.710;2022-12-07T04:27:54;4.33;86.24
68026;SHT31;54819;48.030;14.710;2022-12-07T04:30:21;4.30;86.69
68026;SHT31;54819;48.030;14.710;2022-12-07T04:32:48;4.25;86.83
68026;SHT31;54819;48.030;14.710;2022-12-07T04:35:15;4.26;86.88
68026;SHT31;54819;48.030;14.710;2022-12-07T04:37:42;4.25;87.09
68026;SHT31;54819;48.030;14.710;2022-12-07T04:40:09;4.21;87.28
68026;SHT31;54819;48.030;14.710;2022-12-07T04:42:37;4.24;86.76
68026;SHT31;54819;48.030;14.710;2022-12-07T04:45:05;4.25;86.42
68026;SHT31;54819;48.030;14.710;2022-12-07T04:47:33;4.28;85.98
68026;SHT31;54819;48.030;14.710;2022-12-07T04:49:59;4.29;86.03
68026;SHT31;54819;48.030;14.710;2022-12-07T04:52:27;4.31;86.11
68026;SHT31;54819;48.030;14.710;2022-12-07T04:54:54;4.34;86.16
68026;SHT31;54819;48.030;14.710;2022-12-07T04:57:21;4.36;86.30
68026;SHT31;54819;48.030;14.710;2022-12-07T04:59:47;4.36;86.44
68026;SHT31;54819;48.030;14.710;2022-12-07T05:02:14;4.38;86.47
68026;SHT31;54819;48.030;14.710;2022-12-07T05:04:41;4.35;86.90
68026;SHT31;54819;48.030;14.710;2022-12-07T05:07:08;4.26;87.08
68026;SHT31;54819;48.030;14.710;2022-12-07T05:09:35;4.23;86.90
68026;SHT31;54819;48.030;14.710;2022-12-07T05:12:02;4.16;87.04
68026;SHT31;54819;48.030;14.710;2022-12-07T05:14:29;4.12;86.69
68026;SHT31;54819;48.030;14.710;2022-12-07T05:16:56;4.07;86.58
68026;SHT31;54819;48.030;14.710;2022-12-07T05:19:23;4.03;86.65
68026;SHT31;54819;48.030;14.710;2022-12-07T05:21:49;3.95;86.85
68026;SHT31;54819;48.030;14.710;2022-12-07T05:24:16;3.89;87.28
68026;SHT31;54819;48.030;14.710;2022-12-07T05:26:44;3.88;87.40
68026;SHT31;54819;48.030;14.710;2022-12-07T05:29:13;3.86;87.67
68026;SHT31;54819;48.030;14.710;2022-12-07T05:31:42;3.90;87.68
68026;SHT31;54819;48.030;14.710;2022-12-07T05:34:10;3.94;87.58
68026;SHT31;54819;48.030;14.710;2022-12-07T05:36:37;3.98;87.53
68026;SHT31;54819;48.030;14.710;2022-12-07T05:39:04;3.98;87.66
68026;SHT31;54819;48.030;14.710;2022-12-07T05:41:32;3.93;87.51
68026;SHT31;54819;48.030;14.710;2022-12-07T05:44:17;3.90;87.48
68026;SHT31;54819;48.030;14.710;2022-12-07T05:46:44;3.88;87.29
68026;SHT31;54819;48.030;14.710;2022-12-07T05:49:11;3.89;87.35
68026;SHT31;54819;48.030;14.710;2022-12-07T05:51:38;3.90;87.43
68026;SHT31;54819;48.030;14.710;2022-12-07T05:54:05;3.92;87.42
68026;SHT31;54819;48.030;14.710;2022-12-07T05:56:32;3.93;87.51
68026;SHT31;54819;48.030;14.710;2022-12-07T05:58:59;3.96;87.52
68026;SHT31;54819;48.030;14.710;2022-12-07T06:01:44;3.95;87.49
68026;SHT31;54819;48.030;14.710;2022-12-07T06:04:11;3.97;87.39
68026;SHT31;54819;48.030;14.710;2022-12-07T06:06:38;3.99;87.26
68026;SHT31;54819;48.030;14.710;2022-12-07T06:09:05;3.99;87.21
68026;SHT31;54819;48.030;14.710;2022-12-07T06:11:32;3.97;87.06
68026;SHT31;54819;48.030;14.710;2022-12-07T06:14:17;3.94;86.97
68026;SHT31;54819;48.030;14.710;2022-12-07T06:16:44;3.93;86.95
68026;SHT31;54819;48.030;14.710;2022-12-07T06:19:11;3.93;86.96
68026;SHT31;54819;48.030;14.710;2022-12-07T06:21:38;3.92;87.10
68026;SHT31;54819;48.030;14.710;2022-12-07T06:24:05;3.93;87.27
68026;SHT31;54819;48.030;14.710;2022-12-07T06:26:33;3.93;87.27
68026;SHT31;54819;48.030;14.710;2022-12-07T06:29:00;3.95;87.30
68026;SHT31;54819;48.030;14.710;2022-12-07T06:31:27;3.97;87.30
68026;SHT31;54819;48.030;14.710;2022-12-07T06:33:58;3.99;87.33
68026;SHT31;54819;48.030;14.710;2022-12-07T06:36:30;4.01;87.23
68026;SHT31;54819;48.030;14.710;2022-12-07T06:38:58;4.01;87.17
68026;SHT31;54819;48.030;14.710;2022-12-07T06:41:25;3.99;87.14
68026;SHT31;54819;48.030;14.710;2022-12-07T06:43:52;3.96;87.27
68026;SHT31;54819;48.030;14.710;2022-12-07T06:46:22;3.95;87.16
68026;SHT31;54819;48.030;14.710;2022-12-07T06:48:49;3.96;87.09
68026;SHT31;54819;48.030;14.710;2022-12-07T06:51:17;3.97;87.19
68026;SHT31;54819;48.030;14.710;2022-12-07T06:53:43;4.00;87.24
68026;SHT31;54819;48.030;14.710;2022-12-07T06:56:10;4.02;87.26
68026;SHT31;54819;48.030;14.710;2022-12-07T06:58:37;4.05;87.27
68026;SHT31;54819;48.030;14.710;2022-12-07T07:01:13;4.05;86.95
68026;SHT31;54819;48.030;14.710;2022-12-07T07:03:43;4.09;86.78
68026;SHT31;54819;48.030;14.710;2022-12-07T07:06:12;4.11;86.77
68026;SHT31;54819;48.030;14.710;2022-12-07T07:08:40;4.10;86.55
68026;SHT31;54819;48.030;14.710;2022-12-07T07:11:08;4.10;86.39
68026;SHT31;54819;48.030;14.710;2022-12-07T07:13:36;4.11;86.25
68026;SHT31;54819;48.030;14.710;2022-12-07T07:16:04;4.09;86.08
68026;SHT31;54819;48.030;14.710;2022-12-07T07:18:32;4.07;85.98
68026;SHT31;54819;48.030;14.710;2022-12-07T07:20:59;4.05;85.63
68026;SHT31;54819;48.030;14.710;2022-12-07T07:23:27;4.06;85.38
68026;SHT31;54819;48.030;14.710;2022-12-07T07:25:54;4.08;85.12
68026;SHT31;54819;48.030;14.710;2022-12-07T07:28:21;4.09;85.16
68026;SHT31;54819;48.030;14.710;2022-12-07T07:30:48;4.09;84.80
68026;SHT31;54819;48.030;14.710;2022-12-07T07:33:15;4.12;84.81
68026;SHT31;54819;48.030;14.710;2022-12-07T07:35:42;4.10;82.62
68026;SHT31;54819;48.030;14.710;2022-12-07T07:38:09;4.12;82.70
68026;SHT31;54819;48.030;14.710;2022-12-07T07:40:36;4.13;82.60
68026;SHT31;54819;48.030;14.710;2022-12-07T07:43:03;4.11;81.98
68026;SHT31;54819;48.030;14.710;2022-12-07T07:45:30;4.10;81.61
68026;SHT31;54819;48.030;14.710;2022-12-07T07:47:57;4.10;81.99
68026;SHT31;54819;48.030;14.710;2022-12-07T07:50:24;4.10;81.89
68026;SHT31;54819;48.030;14.710;2022-12-07T07:52:51;4.09;81.27
68026;SHT31;54819;48.030;14.710;2022-12-07T07:55:18;4.11;81.26
68026;SHT31;54819;48.030;14.710;2022-12-07T07:57:45;4.15;81.61
68026;SHT31;54819;48.030;14.710;2022-12-07T08:00:18;4.19;81.58
68026;SHT31;54819;48.030;14.710;2022-12-07T08:02:46;4.23;81.36
68026;SHT31;54819;48.030;14.710;2022-12-07T08:05:13;4.24;80.98
68026;SHT31;54819;48.030;14.710;2022-12-07T08:07:40;4.28;81.09
68026;SHT31;54819;48.030;14.710;2022-12-07T08:10:08;4.31;80.99
68026;SHT31;54819;48.030;14.710;2022-12-07T08:12:39;4.32;80.67
68026;SHT31;54819;48.030;14.710;2022-12-07T08:15:29;4.33;80.21
68026;SHT31;54819;48.030;14.710;2022-12-07T08:17:57;4.34;80.38
68026;SHT31;54819;48.030;14.710;2022-12-07T08:20:25;4.35;80.57
68026;SHT31;54819;48.030;14.710;2022-12-07T08:22:52;4.35;80.64
68026;SHT31;54819;48.030;14.710;2022-12-07T08:25:20;4.36;80.49
68026;SHT31;54819;48.030;14.710;2022-12-07T08:27:48;4.36;80.60
68026;SHT31;54819;48.030;14.710;2022-12-07T08:30:16;4.39;80.63
68026;SHT31;54819;48.030;14.710;2022-12-07T08:32:44;4.43;80.76
68026;SHT31;54819;48.030;14.710;2022-12-07T08:35:12;4.45;80.69
68026;SHT31;54819;48.030;14.710;2022-12-07T08:37:40;4.48;80.38
68026;SHT31;54819;48.030;14.710;2022-12-07T08:40:08;4.52;80.50
68026;SHT31;54819;48.030;14.710;2022-12-07T08:42:42;4.55;80.35
68026;SHT31;54819;48.030;14.710;2022-12-07T08:45:12;4.57;80.07
68026;SHT31;54819;48.030;14.710;2022-12-07T08:47:45;4.58;79.63
68026;SHT31;54819;48.030;14.710;2022-12-07T08:50:23;4.60;79.63
68026;SHT31;54819;48.030;14.710;2022-12-07T08:52:52;4.61;79.15
68026;SHT31;54819;48.030;14.710;2022-12-07T08:55:23;4.65;79.38
68026;SHT31;54819;48.030;14.710;2022-12-07T08:57:51;4.69;79.60
68026;SHT31;54819;48.030;14.710;2022-12-07T09:00:18;4.77;80.07
68026;SHT31;54819;48.030;14.710;2022-12-07T09:02:45;4.86;80.10
68026;SHT31;54819;48.030;14.710;2022-12-07T09:05:13;4.92;79.16
68026;SHT31;54819;48.030;14.710;2022-12-07T09:07:43;4.98;78.44
68026;SHT31;54819;48.030;14.710;2022-12-07T09:10:17;5.07;78.64
68026;SHT31;54819;48.030;14.710;2022-12-07T09:12:45;5.14;78.03
68026;SHT31;54819;48.030;14.710;2022-12-07T09:15:12;5.18;77.47
68026;SHT31;54819;48.030;14.710;2022-12-07T09:17:39;5.22;77.17
68026;SHT31;54819;48.030;14.710;2022-12-07T09:20:06;5.26;76.90
68026;SHT31;54819;48.030;14.710;2022-12-07T09:22:33;5.31;77.45
68026;SHT31;54819;48.030;14.710;2022-12-07T09:25:00;5.39;77.39
68026;SHT31;54819;48.030;14.710;2022-12-07T09:27:28;5.44;77.00
68026;SHT31;54819;48.030;14.710;2022-12-07T09:29:55;5.50;77.16
68026;SHT31;54819;48.030;14.710;2022-12-07T09:32:23;5.53;77.10
68026;SHT31;54819;48.030;14.710;2022-12-07T09:34:50;5.55;76.43
68026;SHT31;54819;48.030;14.710;2022-12-07T09:37:17;5.55;76.78
68026;SHT31;54819;48.030;14.710;2022-12-07T09:39:44;5.58;75.92
68026;SHT31;54819;48.030;14.710;2022-12-07T09:42:35;5.58;75.58
68026;SHT31;54819;48.030;14.710;2022-12-07T09:45:07;5.63;76.49
68026;SHT31;54819;48.030;14.710;2022-12-07T09:47:42;5.69;76.74
68026;SHT31;54819;48.030;14.710;2022-12-07T09:50:15;5.74;76.67
68026;SHT31;54819;48.030;14.710;2022-12-07T09:52:47;5.79;76.60
68026;SHT31;54819;48.030;14.710;2022-12-07T09:55:18;5.80;75.17
68026;SHT31;54819;48.030;14.710;2022-12-07T09:57:53;5.81;74.57
68026;SHT31;54819;48.030;14.710;2022-12-07T10:00:22;5.81;74.32
68026;SHT31;54819;48.030;14.710;2022-12-07T10:02:55;5.83;74.60
68026;SHT31;54819;48.030;14.710;2022-12-07T10:05:29;5.89;75.35
68026;SHT31;54819;48.030;14.710;2022-12-07T10:08:05;5.93;74.31
68026;SHT31;54819;48.030;14.710;2022-12-07T10:10:33;5.97;74.22
68026;SHT31;54819;48.030;14.710;2022-12-07T10:15:42;6.07;74.19
68026;SHT31;54819;48.030;14.710;2022-12-07T10:23:39;6.22;72.54
68026;SHT31;54819;48.030;14.710;2022-12-07T10:26:29;6.24;71.72
68026;SHT31;54819;48.030;14.710;2022-12-07T10:28:59;6.32;71.86
68026;SHT31;54819;48.030;14.710;2022-12-07T10:31:41;6.31;70.44
68026;SHT31;54819;48.030;14.710;2022-12-07T10:34:23;6.30;70.38
68026;SHT31;54819;48.030;14.710;2022-12-07T10:42:22;6.35;69.98
68026;SHT31;54819;48.030;14.710;2022-12-07T10:47:47;6.28;69.88
68026;SHT31;54819;48.030;14.710;2022-12-07T11:01:57;6.40;71.54
68026;SHT31;54819;48.030;14.710;2022-12-07T11:08:03;6.51;71.67
68026;SHT31;54819;48.030;14.710;2022-12-07T11:11:05;6.50;70.16
68026;SHT31;54819;48.030;14.710;2022-12-07T11:13:46;6.45;69.20
68026;SHT31;54819;48.030;14.710;2022-12-07T11:16:57;6.48;70.91
68026;SHT31;54819;48.030;14.710;2022-12-07T11:22:16;6.43;70.89
68026;SHT31;54819;48.030;14.710;2022-12-07T11:27:48;6.38;70.79
68026;SHT31;54819;48.030;14.710;2022-12-07T11:36:49;6.36;70.81
68026;SHT31;54819;48.030;14.710;2022-12-07T11:41:49;6.29;70.53
68026;SHT31;54819;48.030;14.710;2022-12-07T11:44:31;6.28;70.48
68026;SHT31;54819;48.030;14.710;2022-12-07T11:47:10;6.23;70.53
68026;SHT31;54819;48.030;14.710;2022-12-07T11:49:52;6.18;70.82
68026;SHT31;54819;48.030;14.710;2022-12-07T11:52:53;6.14;71.06
68026;SHT31;54819;48.030;14.710;2022-12-07T12:01:08;5.97;71.77
68026;SHT31;54819;48.030;14.710;2022-12-07T12:03:46;5.92;72.37
68026;SHT31;54819;48.030;14.710;2022-12-07T12:06:33;5.86;71.49
68026;SHT31;54819;48.030;14.710;2022-12-07T12:12:21;5.70;70.97
68026;SHT31;54819;48.030;14.710;2022-12-07T12:18:31;5.61;71.51
68026;SHT31;54819;48.030;14.710;2022-12-07T12:21:16;5.61;70.99
68026;SHT31;54819;48.030;14.710;2022-12-07T12:23:56;5.61;71.15
68026;SHT31;54819;48.030;14.710;2022-12-07T12:26:30;5.62;70.97
68026;SHT31;54819;48.030;14.710;2022-12-07T12:29:02;5.62;70.73
68026;SHT31;54819;48.030;14.710;2022-12-07T12:31:38;5.62;70.28
68026;SHT31;54819;48.030;14.710;2022-12-07T12:34:30;5.60;70.23
68026;SHT31;54819;48.030;14.710;2022-12-07T12:42:43;5.64;70.35
68026;SHT31;54819;48.030;14.710;2022-12-07T12:45:31;5.69;71.08
68026;SHT31;54819;48.030;14.710;2022-12-07T12:54:26;5.74;69.51
68026;SHT31;54819;48.030;14.710;2022-12-07T12:56:55;5.79;69.60
68026;SHT31;54819;48.030;14.710;2022-12-07T13:02:21;5.85;68.87
68026;SHT31;54819;48.030;14.710;2022-12-07T13:15:42;5.88;69.42
68026;SHT31;54819;48.030;14.710;2022-12-07T13:23:26;5.85;69.22
68026;SHT31;54819;48.030;14.710;2022-12-07T13:31:56;5.67;69.63
68026;SHT31;54819;48.030;14.710;2022-12-07T13:34:32;5.62;69.95
68026;SHT31;54819;48.030;14.710;2022-12-07T13:37:01;5.58;70.15
68026;SHT31;54819;48.030;14.710;2022-12-07T13:39:54;5.57;70.51
68026;SHT31;54819;48.030;14.710;2022-12-07T13:42:28;5.57;70.88
68026;SHT31;54819;48.030;14.710;2022-12-07T13:44:57;5.57;71.03
68026;SHT31;54819;48.030;14.710;2022-12-07T13:47:32;5.54;70.79
68026;SHT31;54819;48.030;14.710;2022-12-07T13:52:56;5.59;71.71
68026;SHT31;54819;48.030;14.710;2022-12-07T13:55:29;5.59;71.69
68026;SHT31;54819;48.030;14.710;2022-12-07T13:57:56;5.61;72.11
68026;SHT31;54819;48.030;14.710;2022-12-07T14:00:24;5.60;72.25
68026;SHT31;54819;48.030;14.710;2022-12-07T14:05:27;5.62;72.30
68026;SHT31;54819;48.030;14.710;2022-12-07T14:10:29;5.55;71.91
68026;SHT31;54819;48.030;14.710;2022-12-07T14:13:02;5.52;72.02
68026;SHT31;54819;48.030;14.710;2022-12-07T14:15:50;5.44;72.10
68026;SHT31;54819;48.030;14.710;2022-12-07T14:18:28;5.39;72.39
68026;SHT31;54819;48.030;14.710;2022-12-07T14:23:36;5.25;72.57
68026;SHT31;54819;48.030;14.710;2022-12-07T14:26:12;5.19;72.62
68026;SHT31;54819;48.030;14.710;2022-12-07T14:28:42;5.14;72.76
68026;SHT31;54819;48.030;14.710;2022-12-07T14:31:14;5.09;72.96
68026;SHT31;54819;48.030;14.710;2022-12-07T14:33:59;5.01;73.22
68026;SHT31;54819;48.030;14.710;2022-12-07T14:36:26;4.96;73.43
68026;SHT31;54819;48.030;14.710;2022-12-07T14:38:53;4.92;73.78
68026;SHT31;54819;48.030;14.710;2022-12-07T14:41:22;4.87;74.17
68026;SHT31;54819;48.030;14.710;2022-12-07T14:44:12;4.82;74.49
68026;SHT31;54819;48.030;14.710;2022-12-07T14:46:59;4.78;74.83
68026;SHT31;54819;48.030;14.710;2022-12-07T14:49:46;4.72;74.89
68026;SHT31;54819;48.030;14.710;2022-12-07T14:52:14;4.66;74.83
68026;SHT31;54819;48.030;14.710;2022-12-07T14:55:13;4.58;74.74
68026;SHT31;54819;48.030;14.710;2022-12-07T14:57:46;4.50;74.57
68026;SHT31;54819;48.030;14.710;2022-12-07T15:00:14;4.42;74.51
68026;SHT31;54819;48.030;14.710;2022-12-07T15:02:44;4.34;74.63
68026;SHT31;54819;48.030;14.710;2022-12-07T15:05:12;4.23;74.74
68026;SHT31;54819;48.030;14.710;2022-12-07T15:07:42;4.14;74.87
68026;SHT31;54819;48.030;14.710;2022-12-07T15:10:15;4.04;74.93
68026;SHT31;54819;48.030;14.710;2022-12-07T15:12:59;3.92;75.06
68026;SHT31;54819;48.030;14.710;2022-12-07T15:15:47;3.80;75.25
68026;SHT31;54819;48.030;14.710;2022-12-07T15:18:17;3.70;75.47
68026;SHT31;54819;48.030;14.710;2022-12-07T15:20:45;3.59;75.54
68026;SHT31;54819;48.030;14.710;2022-12-07T15:23:14;3.52;75.85
68026;SHT31;54819;48.030;14.710;2022-12-07T15:25:42;3.42;76.07
68026;SHT31;54819;48.030;14.710;2022-12-07T15:28:09;3.34;76.17
68026;SHT31;54819;48.030;14.710;2022-12-07T15:30:40;3.31;76.42
68026;SHT31;54819;48.030;14.710;2022-12-07T15:33:12;3.28;76.53
68026;SHT31;54819;48.030;14.710;2022-12-07T15:35:40;3.25;76.62
68026;SHT31;54819;48.030;14.710;2022-12-07T15:38:11;3.22;76.63
68026;SHT31;54819;48.030;14.710;2022-12-07T15:40:39;3.18;76.65
68026;SHT31;54819;48.030;14.710;2022-12-07T15:43:10;3.14;76.65
68026;SHT31;54819;48.030;14.710;2022-12-07T15:45:57;3.08;76.59
68026;SHT31;54819;48.030;14.710;2022-12-07T15:48:25;3.01;76.76
68026;SHT31;54819;48.030;14.710;2022-12-07T15:51:01;2.96;76.67
68026;SHT31;54819;48.030;14.710;2022-12-07T15:53:33;2.89;77.08
68026;SHT31;54819;48.030;14.710;2022-12-07T15:56:01;2.83;76.95
68026;SHT31;54819;48.030;14.710;2022-12-07T15:58:31;2.74;77.16
68026;SHT31;54819;48.030;14.710;2022-12-07T16:00:58;2.69;77.29
68026;SHT31;54819;48.030;14.710;2022-12-07T16:03:26;2.64;77.26
68026;SHT31;54819;48.030;14.710;2022-12-07T16:05:53;2.60;77.44
68026;SHT31;54819;48.030;14.710;2022-12-07T16:08:20;2.59;77.67
68026;SHT31;54819;48.030;14.710;2022-12-07T16:10:48;2.60;78.26
68026;SHT31;54819;48.030;14.710;2022-12-07T16:13:15;2.63;78.79
68026;SHT31;54819;48.030;14.710;2022-12-07T16:15:42;2.67;78.68
68026;SHT31;54819;48.030;14.710;2022-12-07T16:18:09;2.73;78.76
68026;SHT31;54819;48.030;14.710;2022-12-07T16:20:36;2.79;78.96
68026;SHT31;54819;48.030;14.710;2022-12-07T16:23:03;2.83;78.90
68026;SHT31;54819;48.030;14.710;2022-12-07T16:25:30;2.86;78.56
68026;SHT31;54819;48.030;14.710;2022-12-07T16:27:57;2.89;78.43
68026;SHT31;54819;48.030;14.710;2022-12-07T16:30:24;2.90;78.47
68026;SHT31;54819;48.030;14.710;2022-12-07T16:32:51;2.90;78.56
68026;SHT31;54819;48.030;14.710;2022-12-07T16:35:23;2.90;78.44
68026;SHT31;54819;48.030;14.710;2022-12-07T16:37:50;2.91;78.34
68026;SHT31;54819;48.030;14.710;2022-12-07T16:40:17;2.91;78.26
68026;SHT31;54819;48.030;14.710;2022-12-07T16:42:43;2.90;78.15
68026;SHT31;54819;48.030;14.710;2022-12-07T16:45:10;2.89;78.37
68026;SHT31;54819;48.030;14.710;2022-12-07T16:47:43;2.87;78.41
68026;SHT31;54819;48.030;14.710;2022-12-07T16:50:10;2.86;78.52
68026;SHT31;54819;48.030;14.710;2022-12-07T16:52:36;2.86;78.66
68026;SHT31;54819;48.030;14.710;2022-12-07T16:55:03;2.87;78.86
68026;SHT31;54819;48.030;14.710;2022-12-07T16:57:31;2.88;78.89
68026;SHT31;54819;48.030;14.710;2022-12-07T16:59:58;2.90;79.02
68026;SHT31;54819;48.030;14.710;2022-12-07T17:02:25;2.91;78.85
68026;SHT31;54819;48.030;14.710;2022-12-07T17:04:52;2.92;78.68
68026;SHT31;54819;48.030;14.710;2022-12-07T17:07:22;2.92;78.56
68026;SHT31;54819;48.030;14.710;2022-12-07T17:09:49;2.93;78.50
68026;SHT31;54819;48.030;14.710;2022-12-07T17:12:19;2.92;78.42
68026;SHT31;54819;48.030;14.710;2022-12-07T17:14:46;2.92;78.41
68026;SHT31;54819;48.030;14.710;2022-12-07T17:17:33;2.91;78.37
68026;SHT31;54819;48.030;14.710;2022-12-07T17:20:00;2.90;78.20
68026;SHT31;54819;48.030;14.710;2022-12-07T17:22:27;2.90;78.06
68026;SHT31;54819;48.030;14.710;2022-12-07T17:24:54;2.90;77.93
68026;SHT31;54819;48.030;14.710;2022-12-07T17:27:20;2.90;77.74
68026;SHT31;54819;48.030;14.710;2022-12-07T17:29:48;2.93;77.80
68026;SHT31;54819;48.030;14.710;2022-12-07T17:32:15;2.96;77.79
68026;SHT31;54819;48.030;14.710;2022-12-07T17:34:42;2.99;77.97
68026;SHT31;54819;48.030;14.710;2022-12-07T17:37:10;3.02;78.09
68026;SHT31;54819;48.030;14.710;2022-12-07T17:39:37;3.05;78.13
68026;SHT31;54819;48.030;14.710;2022-12-07T17:42:05;3.06;78.27
68026;SHT31;54819;48.030;14.710;2022-12-07T17:44:51;3.07;78.19
68026;SHT31;54819;48.030;14.710;2022-12-07T17:47:19;3.06;78.25
68026;SHT31;54819;48.030;14.710;2022-12-07T17:49:48;3.06;78.29
68026;SHT31;54819;48.030;14.710;2022-12-07T17:52:15;3.06;78.24
68026;SHT31;54819;48.030;14.710;2022-12-07T17:55:01;3.04;78.12
68026;SHT31;54819;48.030;14.710;2022-12-07T17:57:28;3.02;78.14
68026;SHT31;54819;48.030;14.710;2022-12-07T17:59:56;3.00;78.12
68026;SHT31;54819;48.030;14.710;2022-12-07T18:02:24;2.96;78.24
68026;SHT31;54819;48.030;14.710;2022-12-07T18:04:51;2.95;78.30
68026;SHT31;54819;48.030;14.710;2022-12-07T18:07:18;2.90;78.39
68026;SHT31;54819;48.030;14.710;2022-12-07T18:09:45;2.89;78.28
68026;SHT31;54819;48.030;14.710;2022-12-07T18:12:12;2.88;78.10
68026;SHT31;54819;48.030;14.710;2022-12-07T18:14:39;2.90;78.16
68026;SHT31;54819;48.030;14.710;2022-12-07T18:17:05;2.91;78.30
68026;SHT31;54819;48.030;14.710;2022-12-07T18:19:32;2.94;78.44
68026;SHT31;54819;48.030;14.710;2022-12-07T18:22:03;2.97;78.51
68026;SHT31;54819;48.030;14.710;2022-12-07T18:24:30;3.01;78.39
68026;SHT31;54819;48.030;14.710;2022-12-07T18:27:03;3.03;78.50
68026;SHT31;54819;48.030;14.710;2022-12-07T18:29:31;3.06;78.33